createdAt,value
2018-07-10T00:00:07.346Z,48.77
2018-07-10T00:03:19.709Z,48.91
2018-07-10T00:08:33.599Z,49.25
2018-07-10T00:11:26.440Z,49.65
2018-07-10T00:13:54.333Z,50.02
2018-07-10T00:16:22.507Z,49.71
2018-07-10T00:18:50.393Z,50.85
2018-07-10T00:21:18.646Z,50.66
2018-07-10T00:23:47.017Z,51.82
2018-07-10T00:26:14.737Z,50.80
2018-07-10T00:28:42.966Z,51.54
2018-07-10T00:31:10.714Z,51.40
2018-07-10T00:33:38.490Z,51.34
2018-07-10T00:36:06.218Z,52.25
2018-07-10T00:38:51.386Z,52.34
2018-07-10T00:41:25.775Z,52.35
2018-07-10T00:43:53.866Z,52.08
2018-07-10T00:46:22.374Z,52.86
2018-07-10T00:48:50.390Z,53.83
2018-07-10T00:51:18.563Z,53.44
2018-07-10T00:53:46.234Z,54.03
2018-07-10T00:56:14.146Z,53.53
2018-07-10T00:58:41.834Z,53.31
2018-07-10T01:01:09.555Z,53.13
2018-07-10T01:03:37.391Z,53.40
2018-07-10T01:06:05.029Z,54.19
2018-07-10T01:08:32.779Z,55.12
2018-07-10T01:11:08.019Z,54.99
2018-07-10T01:13:35.942Z,54.53
2018-07-10T01:16:03.783Z,55.60
2018-07-10T01:18:41.275Z,56.01
2018-07-10T01:21:15.226Z,56.14
2018-07-10T01:23:43.098Z,55.43
2018-07-10T01:26:12.653Z,56.19
2018-07-10T01:28:41.175Z,56.49
2018-07-10T01:31:08.911Z,56.71
2018-07-10T01:33:36.629Z,56.12
2018-07-10T01:36:06.026Z,55.92
2018-07-10T01:38:34.809Z,55.68
2018-07-10T01:41:02.562Z,55.54
2018-07-10T01:43:30.522Z,55.95
2018-07-10T01:45:58.240Z,55.21
2018-07-10T01:48:26.014Z,55.58
2018-07-10T01:50:53.998Z,55.17
2018-07-10T01:53:21.893Z,56.38
2018-07-10T01:55:49.678Z,55.21
2018-07-10T01:58:18.097Z,56.25
2018-07-10T02:00:46.394Z,56.47
2018-07-10T02:03:14.150Z,55.98
2018-07-10T02:05:42.340Z,56.37
2018-07-10T02:08:10.194Z,55.93
2018-07-10T02:10:37.885Z,56.78
2018-07-10T02:13:05.736Z,56.26
2018-07-10T02:15:33.647Z,56.73
2018-07-10T02:18:01.374Z,57.00
2018-07-10T02:20:53.182Z,56.09
2018-07-10T02:23:21.643Z,56.50
2018-07-10T02:25:49.850Z,57.08
2018-07-10T02:28:18.035Z,57.14
2018-07-10T02:30:46.076Z,57.42
2018-07-10T02:33:13.818Z,56.49
2018-07-10T02:35:41.651Z,56.58
2018-07-10T02:38:09.670Z,57.00
2018-07-10T02:40:37.452Z,56.98
2018-07-10T02:43:05.289Z,56.64
2018-07-10T02:45:33.295Z,56.99
2018-07-10T02:48:01.021Z,56.90
2018-07-10T02:50:30.301Z,57.22
2018-07-10T02:52:58.340Z,57.59
2018-07-10T02:55:26.071Z,58.00
2018-07-10T02:57:53.787Z,58.42
2018-07-10T03:00:21.659Z,59.02
2018-07-10T03:02:50.374Z,58.72
2018-07-10T03:05:19.603Z,59.03
2018-07-10T03:07:47.676Z,59.08
2018-07-10T03:10:34.739Z,58.66
2018-07-10T03:13:02.497Z,58.90
2018-07-10T03:15:30.592Z,59.20
2018-07-10T03:17:59.069Z,59.01
2018-07-10T03:20:26.999Z,58.38
2018-07-10T03:22:54.707Z,58.64
2018-07-10T03:25:22.430Z,57.79
2018-07-10T03:27:50.420Z,57.81
2018-07-10T03:30:18.123Z,57.43
2018-07-10T03:32:45.926Z,58.50
2018-07-10T03:35:13.910Z,58.43
2018-07-10T03:37:42.122Z,59.00
2018-07-10T03:40:10.326Z,58.88
2018-07-10T03:42:38.054Z,59.64
2018-07-10T03:45:05.779Z,60.16
2018-07-10T03:47:33.510Z,60.46
2018-07-10T03:50:01.296Z,61.00
2018-07-10T03:52:34.405Z,61.03
2018-07-10T03:55:06.678Z,61.09
2018-07-10T03:57:34.520Z,61.28
2018-07-10T04:00:06.738Z,61.26
2018-07-10T04:02:35.364Z,60.49
2018-07-10T04:05:03.281Z,60.46
2018-07-10T04:07:32.082Z,61.07
2018-07-10T04:12:49.141Z,60.26
2018-07-10T04:15:17.454Z,60.92
2018-07-10T04:18:03.248Z,59.75
2018-07-10T04:20:43.367Z,60.16
2018-07-10T04:23:11.050Z,59.57
2018-07-10T04:25:38.839Z,59.52
2018-07-10T04:28:14.243Z,59.31
2018-07-10T04:30:55.019Z,59.29
2018-07-10T04:33:22.729Z,60.02
2018-07-10T04:35:50.834Z,59.02
2018-07-10T04:38:23.751Z,59.21
2018-07-10T04:40:51.482Z,59.13
2018-07-10T04:43:20.457Z,59.13
2018-07-10T04:45:55.082Z,58.86
2018-07-10T04:48:44.318Z,58.60
2018-07-10T04:51:33.984Z,58.34
2018-07-10T04:54:44.748Z,59.05
2018-07-10T04:57:16.220Z,59.00
2018-07-10T04:59:44.374Z,59.10
2018-07-10T05:02:13.391Z,58.27
2018-07-10T05:04:41.177Z,58.53
2018-07-10T05:07:10.039Z,59.06
2018-07-10T05:09:38.435Z,60.62
2018-07-10T05:12:07.278Z,59.09
2018-07-10T05:14:36.715Z,59.58
2018-07-10T05:17:04.417Z,59.18
2018-07-10T05:19:32.158Z,58.51
2018-07-10T05:21:59.845Z,57.82
2018-07-10T05:24:27.640Z,57.65
2018-07-10T05:26:56.377Z,58.37
2018-07-10T05:29:24.423Z,57.80
2018-07-10T05:31:52.518Z,57.83
2018-07-10T05:34:21.019Z,57.08
2018-07-10T05:36:49.485Z,56.33
2018-07-10T05:39:17.242Z,56.22
2018-07-10T05:41:46.642Z,56.34
2018-07-10T05:44:19.540Z,55.99
2018-07-10T05:46:47.635Z,56.52
2018-07-10T05:49:16.054Z,56.24
2018-07-10T05:51:47.662Z,56.28
2018-07-10T05:54:15.361Z,56.15
2018-07-10T05:56:43.147Z,56.02
2018-07-10T05:59:11.328Z,56.35
2018-07-10T06:01:39.961Z,55.24
2018-07-10T06:04:09.866Z,55.80
2018-07-10T06:06:37.694Z,55.94
2018-07-10T06:09:06.189Z,56.04
2018-07-10T06:11:35.591Z,57.04
2018-07-10T06:14:03.434Z,57.16
2018-07-10T06:16:31.392Z,56.62
2018-07-10T06:18:59.106Z,59.02
2018-07-10T06:21:37.663Z,59.79
2018-07-10T06:24:14.129Z,60.08
2018-07-10T06:26:42.779Z,56.24
2018-07-10T06:29:16.946Z,56.18
2018-07-10T06:31:51.355Z,56.08
2018-07-10T06:34:26.450Z,55.74
2018-07-10T06:37:04.676Z,55.87
2018-07-10T06:39:32.362Z,56.87
2018-07-10T06:42:03.618Z,55.65
2018-07-10T06:44:34.454Z,54.58
2018-07-10T06:47:03.893Z,54.69
2018-07-10T06:49:35.508Z,53.93
2018-07-10T06:52:10.452Z,55.25
2018-07-10T06:55:08.156Z,55.60
2018-07-10T06:57:48.938Z,56.46
2018-07-10T07:00:16.750Z,54.08
2018-07-10T07:02:44.450Z,54.67
2018-07-10T07:05:12.150Z,54.20
2018-07-10T07:07:40.462Z,53.21
2018-07-10T07:10:34.019Z,52.91
2018-07-10T07:13:01.968Z,50.95
2018-07-10T07:15:29.737Z,52.20
2018-07-10T07:17:57.542Z,52.71
2018-07-10T07:20:25.234Z,51.40
2018-07-10T07:22:53.403Z,51.54
2018-07-10T07:25:21.105Z,51.40
2018-07-10T07:27:49.171Z,51.19
2018-07-10T07:30:16.992Z,51.57
2018-07-10T07:32:44.699Z,52.58
2018-07-10T07:35:12.489Z,52.20
2018-07-10T07:37:41.037Z,51.54
2018-07-10T07:40:10.377Z,51.47
2018-07-10T07:42:38.491Z,51.75
2018-07-10T07:45:06.440Z,53.03
2018-07-10T07:47:34.197Z,51.32
2018-07-10T07:50:01.966Z,50.20
2018-07-10T07:52:30.723Z,49.38
2018-07-10T07:54:59.874Z,48.80
2018-07-10T07:57:27.603Z,48.25
2018-07-10T07:59:55.325Z,48.06
2018-07-10T08:02:23.495Z,47.70
2018-07-10T08:04:51.564Z,46.79
2018-07-10T08:07:20.486Z,48.22
2018-07-10T08:09:48.926Z,50.00
2018-07-10T08:12:16.671Z,48.33
2018-07-10T08:14:44.962Z,47.42
2018-07-10T08:17:12.971Z,47.93
2018-07-10T08:19:42.014Z,46.84
2018-07-10T08:22:09.753Z,48.64
2018-07-10T08:24:37.559Z,47.24
2018-07-10T08:27:05.181Z,47.13
2018-07-10T08:29:32.849Z,47.22
2018-07-10T08:32:00.545Z,46.67
2018-07-10T08:34:29.302Z,45.59
2018-07-10T08:36:56.981Z,45.97
2018-07-10T08:39:25.039Z,44.64
2018-07-10T08:41:52.808Z,44.28
2018-07-10T08:44:20.770Z,43.74
2018-07-10T08:46:54.007Z,44.19
2018-07-10T08:49:25.336Z,43.00
2018-07-10T08:51:53.061Z,44.27
2018-07-10T08:54:22.805Z,43.60
2018-07-10T08:56:51.322Z,44.01
2018-07-10T08:59:19.346Z,43.10
2018-07-10T09:01:47.603Z,41.41
2018-07-10T09:04:16.440Z,41.17
2018-07-10T09:06:44.293Z,41.89
2018-07-10T09:09:12.042Z,41.38
2018-07-10T09:11:40.574Z,41.81
2018-07-10T09:14:08.483Z,42.62
2018-07-10T09:16:36.207Z,42.70
2018-07-10T09:19:05.322Z,41.89
2018-07-10T09:21:33.009Z,42.57
2018-07-10T09:24:00.714Z,42.10
2018-07-10T09:26:28.422Z,42.27
2018-07-10T09:28:56.518Z,42.16
2018-07-10T09:31:24.215Z,42.07
2018-07-10T09:33:52.008Z,42.08
2018-07-10T09:36:19.663Z,43.06
2018-07-10T09:38:47.386Z,41.99
2018-07-10T09:41:15.120Z,40.71
2018-07-10T09:43:44.398Z,39.53
2018-07-10T09:46:12.384Z,38.32
2018-07-10T09:48:40.079Z,37.87
2018-07-10T09:51:07.847Z,38.34
2018-07-10T09:53:35.606Z,38.46
2018-07-10T09:56:03.294Z,39.02
2018-07-10T09:58:31.926Z,40.21
2018-07-10T10:01:08.247Z,39.70
2018-07-10T10:03:36.826Z,38.96
2018-07-10T10:06:05.290Z,38.58
2018-07-10T10:08:33.028Z,38.74
2018-07-10T10:11:00.829Z,40.33
2018-07-10T10:13:28.569Z,40.71
2018-07-10T10:15:56.256Z,41.18
2018-07-10T10:18:24.134Z,42.23
2018-07-10T10:20:52.609Z,42.17
2018-07-10T10:23:20.314Z,41.17
2018-07-10T10:25:49.217Z,41.10
2018-07-10T10:28:17.658Z,41.34
2018-07-10T10:30:45.386Z,41.36
2018-07-10T10:33:13.082Z,40.18
2018-07-10T10:35:40.885Z,39.83
2018-07-10T10:38:08.634Z,41.56
2018-07-10T10:40:38.665Z,40.97
2018-07-10T10:43:09.115Z,39.63
2018-07-10T10:45:40.674Z,39.87
2018-07-10T10:48:09.096Z,41.21
2018-07-10T10:50:38.608Z,39.75
2018-07-10T10:53:06.778Z,40.30
2018-07-10T10:55:35.109Z,40.11
2018-07-10T10:58:03.270Z,40.35
2018-07-10T11:00:31.318Z,40.74
2018-07-10T11:02:59.142Z,41.12
2018-07-10T11:05:28.005Z,41.50
2018-07-10T11:07:56.233Z,41.13
2018-07-10T11:10:34.717Z,40.55
2018-07-10T11:13:02.558Z,40.06
2018-07-10T11:15:35.071Z,39.84
2018-07-10T11:18:06.978Z,39.72
2018-07-10T11:21:06.782Z,39.83
2018-07-10T11:23:47.338Z,40.36
2018-07-10T11:26:39.688Z,39.40
2018-07-10T11:29:07.691Z,40.22
2018-07-10T11:31:36.043Z,40.86
2018-07-10T11:34:04.319Z,41.44
2018-07-10T11:36:32.022Z,41.13
2018-07-10T11:39:03.996Z,40.78
2018-07-10T11:41:32.130Z,41.35
2018-07-10T11:44:04.903Z,41.37
2018-07-10T11:46:32.642Z,40.63
2018-07-10T11:49:00.862Z,40.89
2018-07-10T11:51:29.304Z,40.44
2018-07-10T11:53:57.033Z,39.66
2018-07-10T11:56:24.749Z,40.88
2018-07-10T11:58:52.515Z,40.12
2018-07-10T12:01:20.217Z,39.48
2018-07-10T12:03:48.181Z,39.89
2018-07-10T12:06:15.903Z,39.44
2018-07-10T12:08:54.705Z,40.56
2018-07-10T12:11:26.974Z,38.64
2018-07-10T12:13:54.715Z,39.44
2018-07-10T12:16:22.430Z,40.04
2018-07-10T12:18:50.139Z,39.69
2018-07-10T12:21:19.166Z,39.51
2018-07-10T12:23:46.922Z,40.36
2018-07-10T12:26:14.671Z,40.11
2018-07-10T12:28:42.433Z,39.70
2018-07-10T12:31:10.230Z,39.19
2018-07-10T12:33:37.998Z,38.68
2018-07-10T12:36:06.215Z,38.92
2018-07-10T12:38:34.013Z,39.83
2018-07-10T12:41:01.840Z,38.50
2018-07-10T12:43:29.554Z,38.01
2018-07-10T12:45:57.330Z,38.09
2018-07-10T12:48:25.105Z,36.30
2018-07-10T12:50:52.831Z,36.77
2018-07-10T12:53:20.516Z,36.82
2018-07-10T12:55:48.299Z,36.32
2018-07-10T12:58:17.519Z,35.38
2018-07-10T13:00:45.202Z,34.56
2018-07-10T13:03:14.459Z,36.27
2018-07-10T13:05:49.580Z,36.51
2018-07-10T13:08:17.887Z,35.64
2018-07-10T13:10:45.856Z,36.36
2018-07-10T13:13:13.962Z,36.18
2018-07-10T13:15:41.773Z,35.17
2018-07-10T13:18:09.552Z,35.91
2018-07-10T13:20:37.433Z,35.20
2018-07-10T13:23:05.199Z,37.06
2018-07-10T13:25:33.011Z,37.02
2018-07-10T13:28:00.682Z,36.67
2018-07-10T13:30:28.690Z,35.74
2018-07-10T13:32:56.419Z,35.74
2018-07-10T13:35:24.298Z,36.74
2018-07-10T13:37:52.294Z,34.70
2018-07-10T13:40:20.114Z,35.13
2018-07-10T13:42:56.118Z,33.93
2018-07-10T13:45:25.022Z,34.34
2018-07-10T13:47:52.851Z,33.76
2018-07-10T13:50:23.659Z,33.62
2018-07-10T13:52:52.149Z,34.41
2018-07-10T13:55:19.864Z,34.89
2018-07-10T13:58:12.814Z,35.11
2018-07-10T14:01:05.002Z,34.52
2018-07-10T14:03:33.115Z,34.38
2018-07-10T14:06:01.003Z,33.92
2018-07-10T14:08:29.069Z,34.34
2018-07-10T14:10:56.794Z,34.36
2018-07-10T14:13:24.595Z,34.10
2018-07-10T14:15:52.313Z,33.91
2018-07-10T14:18:20.078Z,34.45
2018-07-10T14:20:52.449Z,33.22
2018-07-10T14:23:20.427Z,32.90
2018-07-10T14:25:48.671Z,32.79
2018-07-10T14:28:16.473Z,32.90
2018-07-10T14:30:44.150Z,34.69
2018-07-10T14:33:11.854Z,33.50
2018-07-10T14:35:39.537Z,32.47
2018-07-10T14:38:09.182Z,32.47
2018-07-10T14:40:41.041Z,33.19
2018-07-10T14:43:08.802Z,33.40
2018-07-10T14:45:37.610Z,34.07
2018-07-10T14:48:06.101Z,32.97
2018-07-10T14:50:34.070Z,33.62
2018-07-10T14:53:02.399Z,33.55
2018-07-10T14:55:30.070Z,32.42
2018-07-10T14:57:57.826Z,32.70
2018-07-10T15:00:25.703Z,33.78
2018-07-10T15:02:53.394Z,32.45
2018-07-10T15:05:21.185Z,33.48
2018-07-10T15:07:48.933Z,32.24
2018-07-10T15:10:33.874Z,32.39
2018-07-10T15:13:01.570Z,32.46
2018-07-10T15:15:29.331Z,31.88
2018-07-10T15:18:03.062Z,33.54
2018-07-10T15:20:30.759Z,33.18
2018-07-10T15:23:00.283Z,32.93
2018-07-10T15:25:28.061Z,33.24
2018-07-10T15:30:30.319Z,31.81
2018-07-10T15:32:58.893Z,33.54
2018-07-10T15:35:27.249Z,32.99
2018-07-10T15:37:55.186Z,31.92
2018-07-10T15:40:22.936Z,32.30
2018-07-10T15:42:50.787Z,32.58
2018-07-10T15:45:18.589Z,33.38
2018-07-10T15:47:46.267Z,33.80
2018-07-10T15:50:13.969Z,32.81
2018-07-10T15:52:41.744Z,32.70
2018-07-10T15:55:09.429Z,33.22
2018-07-10T15:57:37.134Z,33.53
2018-07-10T16:00:04.929Z,33.13
2018-07-10T16:02:32.655Z,32.66
2018-07-10T16:05:00.396Z,33.75
2018-07-10T16:07:28.474Z,32.05
2018-07-10T16:09:56.207Z,32.87
2018-07-10T16:12:24.135Z,32.65
2018-07-10T16:14:52.734Z,33.71
2018-07-10T16:17:23.641Z,31.98
2018-07-10T16:20:01.990Z,32.29
2018-07-10T16:22:30.007Z,31.77
2018-07-10T16:25:05.295Z,32.22
2018-07-10T16:27:36.763Z,33.52
2018-07-10T16:30:05.043Z,32.90
2018-07-10T16:32:35.637Z,34.37
2018-07-10T16:35:03.387Z,32.93
2018-07-10T16:37:31.103Z,32.79
2018-07-10T16:39:58.969Z,33.24
2018-07-10T16:42:32.567Z,33.57
2018-07-10T16:45:00.366Z,32.71
2018-07-10T16:47:34.070Z,32.99
2018-07-10T16:50:05.620Z,34.10
2018-07-10T16:52:38.226Z,32.80
2018-07-10T16:55:05.942Z,33.91
2018-07-10T16:57:33.908Z,33.53
2018-07-10T17:00:01.600Z,33.74
2018-07-10T17:02:29.298Z,33.58
2018-07-10T17:04:57.622Z,34.68
2018-07-10T17:07:25.391Z,34.25
2018-07-10T17:09:53.138Z,32.75
2018-07-10T17:12:21.389Z,33.64
2018-07-10T17:14:58.874Z,34.32
2018-07-10T17:17:27.555Z,32.97
2018-07-10T17:19:55.626Z,34.14
2018-07-10T17:22:23.907Z,34.04
2018-07-10T17:24:52.389Z,33.54
2018-07-10T17:27:33.127Z,34.58
2018-07-10T17:30:02.071Z,34.63
2018-07-10T17:32:30.490Z,34.05
2018-07-10T17:34:58.599Z,34.95
2018-07-10T17:37:26.523Z,34.61
2018-07-10T17:39:55.637Z,35.39
2018-07-10T17:42:23.345Z,35.68
2018-07-10T17:44:51.064Z,34.61
2018-07-10T17:47:18.966Z,35.10
2018-07-10T17:49:46.666Z,34.77
2018-07-10T17:52:14.413Z,34.81
2018-07-10T17:54:42.095Z,35.35
2018-07-10T17:57:09.782Z,35.04
2018-07-10T17:59:38.997Z,35.66
2018-07-10T18:02:06.798Z,35.88
2018-07-10T18:04:34.489Z,36.24
2018-07-10T18:07:02.190Z,36.18
2018-07-10T18:09:29.887Z,35.85
2018-07-10T18:11:57.621Z,35.73
2018-07-10T18:14:25.527Z,34.81
2018-07-10T18:16:53.356Z,35.30
2018-07-10T18:19:21.853Z,36.23
2018-07-10T18:21:49.569Z,35.80
2018-07-10T18:24:17.499Z,36.59
2018-07-10T18:26:45.192Z,36.51
2018-07-10T18:29:12.884Z,36.72
2018-07-10T18:31:40.659Z,35.86
2018-07-10T18:34:08.366Z,36.74
2018-07-10T18:36:36.091Z,36.41
2018-07-10T18:39:03.901Z,36.80
2018-07-10T18:41:31.690Z,37.63
2018-07-10T18:43:59.909Z,38.06
2018-07-10T18:46:28.162Z,37.40
2018-07-10T18:48:55.955Z,37.66
2018-07-10T18:51:24.463Z,37.22
2018-07-10T18:53:52.574Z,37.52
2018-07-10T18:56:21.342Z,37.78
2018-07-10T18:59:10.329Z,37.55
2018-07-10T19:02:13.386Z,38.67
2018-07-10T19:04:56.542Z,39.20
2018-07-10T19:07:24.282Z,38.75
2018-07-10T19:09:52.013Z,38.39
2018-07-10T19:12:23.515Z,38.76
2018-07-10T19:14:51.310Z,38.73
2018-07-10T19:17:26.274Z,38.97
2018-07-10T19:20:05.497Z,39.89
2018-07-10T19:23:14.811Z,39.86
2018-07-10T19:25:42.649Z,39.73
2018-07-10T19:28:11.588Z,40.49
2018-07-10T19:30:47.646Z,40.17
2018-07-10T19:33:15.507Z,40.04
2018-07-10T19:35:43.385Z,40.49
2018-07-10T19:38:11.311Z,40.16
2018-07-10T19:40:39.139Z,41.06
2018-07-10T19:43:07.067Z,40.49
2018-07-10T19:45:35.558Z,40.59
2018-07-10T19:48:04.649Z,41.00
2018-07-10T19:50:38.750Z,41.42
2018-07-10T19:53:06.654Z,41.92
2018-07-10T19:55:38.199Z,40.98
2018-07-10T19:58:47.566Z,41.22
2018-07-10T20:02:01.697Z,42.07
2018-07-10T20:04:40.208Z,41.90
2018-07-10T20:07:11.861Z,42.16
2018-07-10T20:10:56.864Z,42.58
2018-07-10T20:13:46.294Z,42.95
2018-07-10T20:16:57.567Z,43.53
2018-07-10T20:19:45.968Z,43.63
2018-07-10T20:22:17.767Z,43.05
2018-07-10T20:24:56.905Z,43.69
2018-07-10T20:27:37.017Z,43.26
2018-07-10T20:30:28.200Z,43.50
2018-07-10T20:33:12.575Z,43.76
2018-07-10T20:35:46.651Z,44.47
2018-07-10T20:38:14.679Z,44.48
2018-07-10T20:40:43.507Z,45.07
2018-07-10T20:43:15.638Z,45.22
2018-07-10T20:45:48.168Z,45.12
2018-07-10T20:48:32.302Z,45.56
2018-07-10T20:51:06.953Z,45.23
2018-07-10T20:54:49.566Z,45.54
2018-07-10T20:58:22.555Z,45.87
2018-07-10T21:01:02.050Z,45.53
2018-07-10T21:03:55.441Z,45.89
2018-07-10T21:07:03.537Z,46.15
2018-07-10T21:09:48.794Z,45.58
2018-07-10T21:12:22.274Z,46.00
2018-07-10T21:15:06.605Z,46.07
2018-07-10T21:18:40.846Z,45.89
2018-07-10T21:21:23.633Z,45.51
2018-07-10T21:24:03.766Z,46.09
2018-07-10T21:26:42.087Z,45.76
2018-07-10T21:29:27.027Z,46.47
2018-07-10T21:32:03.482Z,46.62
2018-07-10T21:34:43.486Z,45.84
2018-07-10T21:38:26.806Z,45.98
2018-07-10T21:41:08.594Z,46.79
2018-07-10T21:43:50.838Z,46.41
2018-07-10T21:49:26.601Z,47.15
2018-07-10T21:51:54.291Z,47.31
2018-07-10T21:54:22.007Z,47.26
2018-07-10T21:56:49.725Z,47.58
2018-07-10T21:59:19.424Z,47.74
2018-07-10T22:02:10.779Z,49.04
2018-07-10T22:04:39.302Z,48.02
2018-07-10T22:07:11.126Z,48.68
2018-07-10T22:09:39.655Z,48.98
2018-07-10T22:12:11.465Z,48.43
2018-07-10T22:14:40.007Z,49.14
2018-07-10T22:17:20.991Z,48.97
2018-07-10T22:19:50.621Z,49.72
2018-07-10T22:22:21.954Z,49.93
2018-07-10T22:24:50.731Z,49.43
2018-07-10T22:27:18.980Z,49.95
2018-07-10T22:29:52.778Z,49.80
2018-07-10T22:32:29.027Z,50.26
2018-07-10T22:34:56.794Z,50.42
2018-07-10T22:37:24.581Z,50.44
2018-07-10T22:39:52.264Z,49.96
2018-07-10T22:42:19.966Z,50.21
2018-07-10T22:44:50.033Z,50.39
2018-07-10T22:47:41.190Z,51.04
2018-07-10T22:50:19.582Z,51.79
2018-07-10T22:52:54.253Z,51.51
2018-07-10T22:55:26.629Z,51.45
2018-07-10T22:57:58.082Z,51.52
2018-07-10T23:00:30.659Z,51.75
2018-07-10T23:02:59.131Z,52.58
2018-07-10T23:05:27.199Z,52.26
2018-07-10T23:07:54.903Z,52.43
2018-07-10T23:10:34.077Z,53.26
2018-07-10T23:13:01.766Z,52.56
2018-07-10T23:15:29.486Z,52.76
2018-07-10T23:17:57.177Z,53.73
2018-07-10T23:20:24.959Z,53.71
2018-07-10T23:22:54.625Z,53.86
2018-07-10T23:25:24.331Z,53.80
2018-07-10T23:27:56.766Z,54.93
2018-07-10T23:30:25.286Z,55.16
2018-07-10T23:32:53.549Z,56.07
2018-07-10T23:35:21.215Z,56.17
2018-07-10T23:37:55.654Z,55.88
2018-07-10T23:40:23.377Z,56.93
2018-07-10T23:42:52.254Z,56.95
2018-07-10T23:45:26.343Z,57.29
2018-07-10T23:47:56.886Z,57.55
2018-07-10T23:50:27.391Z,57.10
2018-07-10T23:53:44.695Z,57.05
2018-07-10T23:56:12.397Z,57.20
2018-07-10T23:58:40.198Z,57.66
